createdAt,value
2023-03-06T00:02:04.984Z,99928.34
2023-03-06T00:04:25.302Z,99921.38
2023-03-06T00:06:29.742Z,99924.91
2023-03-06T00:08:26.896Z,99919.41
2023-03-06T00:10:24.788Z,99914.63
2023-03-06T00:12:20.634Z,99910.38
2023-03-06T00:14:18.872Z,99916.28
2023-03-06T00:16:14.316Z,99914.09
2023-03-06T00:18:13.740Z,99916.81
2023-03-06T00:20:34.780Z,99903.94
2023-03-06T00:22:35.359Z,99905.50
2023-03-06T00:24:42.944Z,99906.22
2023-03-06T00:27:07.377Z,99901.88
2023-03-06T00:29:03.540Z,99890.53
2023-03-06T00:31:03.560Z,99896.69
2023-03-06T00:33:01.325Z,99892.63
2023-03-06T00:35:04.430Z,99887.63
2023-03-06T00:37:02.663Z,99879.75
2023-03-06T00:39:00.163Z,99888.69
2023-03-06T00:40:59.162Z,99883.81
2023-03-06T00:42:58.811Z,99881.22
2023-03-06T00:44:56.355Z,99877.59
2023-03-06T00:46:54.812Z,99865.94
2023-03-06T00:48:52.020Z,99865.03
2023-03-06T00:50:48.590Z,99867.41
2023-03-06T00:52:44.089Z,99858.88
2023-03-06T00:54:45.182Z,99861.06
2023-03-06T00:56:43.540Z,99862.59
2023-03-06T00:58:40.819Z,99855.88
2023-03-06T01:00:37.386Z,99853.06
2023-03-06T01:02:38.290Z,99850.38
2023-03-06T01:04:33.426Z,99847.66
2023-03-06T01:06:28.360Z,99844.13
2023-03-06T01:08:25.609Z,99839.78
2023-03-06T01:10:21.972Z,99839.66
2023-03-06T01:12:17.608Z,99838.13
2023-03-06T01:14:13.299Z,99842.47
2023-03-06T01:16:10.369Z,99833.13
2023-03-06T01:18:08.226Z,99832.50
2023-03-06T01:20:04.626Z,99828.69
2023-03-06T01:21:59.809Z,99822.44
2023-03-06T01:24:11.250Z,99815.81
2023-03-06T01:26:07.334Z,99812.28
2023-03-06T01:28:03.183Z,99805.22
2023-03-06T01:29:58.969Z,99807.09
2023-03-06T01:31:54.374Z,99804.81
2023-03-06T01:33:52.104Z,99799.03
2023-03-06T01:35:47.653Z,99798.00
2023-03-06T01:37:44.135Z,99788.66
2023-03-06T01:39:39.577Z,99792.06
2023-03-06T01:41:35.087Z,99783.13
2023-03-06T01:43:33.202Z,99780.75
2023-03-06T01:46:04.407Z,99777.22
2023-03-06T01:47:59.785Z,99774.84
2023-03-06T01:49:57.967Z,99779.81
2023-03-06T01:51:56.804Z,99777.22
2023-03-06T01:53:53.828Z,99765.41
2023-03-06T01:55:49.681Z,99765.09
2023-03-06T01:57:49.155Z,99759.78
2023-03-06T01:59:45.789Z,99759.59
2023-03-06T02:01:42.097Z,99754.00
2023-03-06T02:03:37.477Z,99755.25
2023-03-06T02:05:35.638Z,99751.13
2023-03-06T02:07:32.014Z,99748.72
2023-03-06T02:09:29.899Z,99747.78
2023-03-06T02:11:27.277Z,99752.88
2023-03-06T02:13:22.310Z,99746.03
2023-03-06T02:15:21.298Z,99744.06
2023-03-06T02:17:19.811Z,99743.13
2023-03-06T02:19:29.266Z,99739.69
2023-03-06T02:21:30.094Z,99737.31
2023-03-06T02:23:32.302Z,99742.59
2023-03-06T02:25:36.565Z,99734.72
2023-03-06T02:27:32.832Z,99730.47
2023-03-06T02:29:30.623Z,99733.91
2023-03-06T02:31:29.138Z,99734.63
2023-03-06T02:33:27.663Z,99722.69
2023-03-06T02:35:25.320Z,99723.31
2023-03-06T02:37:20.814Z,99730.25
2023-03-06T02:39:17.350Z,99719.88
2023-03-06T02:41:14.994Z,99714.22
2023-03-06T02:43:10.834Z,99722.88
2023-03-06T02:45:08.011Z,99729.50
2023-03-06T02:47:03.466Z,99717.13
2023-03-06T02:48:58.430Z,99731.78
2023-03-06T02:50:54.072Z,99713.47
2023-03-06T02:52:49.163Z,99716.78
2023-03-06T02:54:44.477Z,99714.59
2023-03-06T02:56:42.065Z,99714.69
2023-03-06T02:58:37.427Z,99714.69
2023-03-06T03:00:33.209Z,99715.63
2023-03-06T03:02:26.095Z,99696.19
2023-03-06T03:04:21.117Z,99709.16
2023-03-06T03:06:16.493Z,99704.09
2023-03-06T03:08:11.492Z,99697.13
2023-03-06T03:10:07.061Z,99699.72
2023-03-06T03:12:05.059Z,99700.56
2023-03-06T03:14:00.125Z,99698.56
2023-03-06T03:16:02.384Z,99702.94
2023-03-06T03:17:57.377Z,99694.31
2023-03-06T03:19:52.707Z,99701.78
2023-03-06T03:21:47.674Z,99685.25
2023-03-06T03:23:43.075Z,99692.91
2023-03-06T03:25:38.096Z,99694.59
2023-03-06T03:27:36.294Z,99690.22
2023-03-06T03:29:31.315Z,99685.97
2023-03-06T03:31:26.712Z,99673.72
2023-03-06T03:33:21.749Z,99680.69
2023-03-06T03:35:17.261Z,99672.91
2023-03-06T03:37:12.429Z,99677.16
2023-03-06T03:39:08.354Z,99685.13
2023-03-06T03:41:03.645Z,99680.56
2023-03-06T03:43:01.576Z,99682.34
2023-03-06T03:44:56.508Z,99677.00
2023-03-06T03:46:51.919Z,99684.00
2023-03-06T03:48:46.941Z,99685.41
2023-03-06T03:50:42.420Z,99679.63
2023-03-06T03:52:37.442Z,99678.09
2023-03-06T03:54:32.865Z,99671.25
2023-03-06T03:56:28.481Z,99676.31
2023-03-06T03:58:26.494Z,99677.25
2023-03-06T04:00:22.341Z,99673.00
2023-03-06T04:02:17.875Z,99673.72
2023-03-06T04:04:13.031Z,99673.59
2023-03-06T04:06:09.158Z,99671.00
2023-03-06T04:08:05.611Z,99662.38
2023-03-06T04:10:01.004Z,99671.94
2023-03-06T04:11:55.980Z,99663.44
2023-03-06T04:13:53.999Z,99671.81
2023-03-06T04:18:45.845Z,99676.19
2023-03-06T04:20:53.616Z,99673.59
2023-03-06T04:23:16.997Z,99670.16
2023-03-06T04:25:17.692Z,99674.31
2023-03-06T04:27:14.943Z,99666.53
2023-03-06T04:29:15.111Z,99674.09
2023-03-06T04:31:13.135Z,99675.41
2023-03-06T04:33:08.514Z,99675.75
2023-03-06T04:35:09.165Z,99677.88
2023-03-06T04:37:05.105Z,99688.97
2023-03-06T04:39:00.765Z,99685.34
2023-03-06T04:40:55.699Z,99688.97
2023-03-06T04:42:58.283Z,99686.63
2023-03-06T04:45:02.153Z,99685.06
2023-03-06T04:47:03.579Z,99686.63
2023-03-06T04:49:00.979Z,99690.88
2023-03-06T04:50:56.300Z,99687.88
2023-03-06T04:52:51.349Z,99690.38
2023-03-06T04:54:48.742Z,99692.97
2023-03-06T04:56:43.729Z,99693.59
2023-03-06T04:58:39.182Z,99692.84
2023-03-06T05:00:36.795Z,99692.50
2023-03-06T05:03:00.203Z,99696.34
2023-03-06T05:04:59.591Z,99691.63
2023-03-06T05:06:59.175Z,99693.50
2023-03-06T05:08:54.192Z,99697.25
2023-03-06T05:10:57.294Z,99691.50
2023-03-06T05:12:52.448Z,99693.53
2023-03-06T05:14:48.203Z,99694.50
2023-03-06T05:16:46.156Z,99694.16
2023-03-06T05:18:41.643Z,99692.72
2023-03-06T05:20:36.663Z,99693.53
2023-03-06T05:22:32.334Z,99698.84
2023-03-06T05:24:27.325Z,99705.69
2023-03-06T05:26:22.931Z,99703.19
2023-03-06T05:28:17.941Z,99705.81
2023-03-06T05:30:53.069Z,99704.16
2023-03-06T05:32:54.310Z,99703.16
2023-03-06T05:34:49.650Z,99712.72
2023-03-06T05:36:45.219Z,99709.63
2023-03-06T05:38:43.840Z,99706.91
2023-03-06T05:40:38.882Z,99707.28
2023-03-06T05:42:34.332Z,99706.91
2023-03-06T05:44:33.892Z,99715.47
2023-03-06T05:46:29.254Z,99706.63
2023-03-06T05:48:26.890Z,99714.84
2023-03-06T05:50:22.474Z,99710.28
2023-03-06T05:52:17.663Z,99712.44
2023-03-06T05:54:13.092Z,99715.53
2023-03-06T05:56:11.611Z,99715.63
2023-03-06T05:58:06.981Z,99715.03
2023-03-06T06:00:02.004Z,99708.63
2023-03-06T06:01:57.725Z,99707.38
2023-03-06T06:03:55.512Z,99713.28
2023-03-06T06:05:51.215Z,99713.81
2023-03-06T06:07:46.249Z,99710.78
2023-03-06T06:09:41.787Z,99717.28
2023-03-06T06:11:36.746Z,99714.50
2023-03-06T06:13:32.033Z,99712.09
2023-03-06T06:15:28.922Z,99713.03
2023-03-06T06:17:24.323Z,99724.47
2023-03-06T06:19:21.975Z,99725.91
2023-03-06T06:21:17.699Z,99723.25
2023-03-06T06:23:13.297Z,99727.34
2023-03-06T06:25:10.147Z,99725.56
2023-03-06T06:27:05.226Z,99726.00
2023-03-06T06:29:12.186Z,99721.53
2023-03-06T06:31:12.216Z,99723.69
2023-03-06T06:33:07.917Z,99727.66
2023-03-06T06:35:05.513Z,99730.03
2023-03-06T06:37:00.840Z,99724.75
2023-03-06T06:38:56.117Z,99733.97
2023-03-06T06:41:26.711Z,99727.66
2023-03-06T06:43:07.078Z,99732.84
2023-03-06T06:45:02.742Z,99727.16
2023-03-06T06:49:13.624Z,99731.59
2023-03-06T06:51:11.418Z,99731.16
2023-03-06T06:53:06.842Z,99734.47
2023-03-06T06:55:01.945Z,99723.84
2023-03-06T06:56:57.675Z,99732.72
2023-03-06T06:58:59.100Z,99732.34
2023-03-06T07:00:59.218Z,99740.75
2023-03-06T07:02:54.201Z,99738.38
2023-03-06T07:05:03.066Z,99739.81
2023-03-06T07:07:02.348Z,99738.66
2023-03-06T07:08:57.788Z,99736.25
2023-03-06T07:10:52.747Z,99726.56
2023-03-06T07:12:48.417Z,99736.97
2023-03-06T07:14:44.122Z,99726.44
2023-03-06T07:16:39.705Z,99730.81
2023-03-06T07:18:34.735Z,99737.78
2023-03-06T07:20:31.901Z,99739.44
2023-03-06T07:22:33.861Z,99738.63
2023-03-06T07:24:36.882Z,99739.47
2023-03-06T07:26:34.468Z,99738.31
2023-03-06T07:28:37.608Z,99744.34
2023-03-06T07:30:43.425Z,99738.38
2023-03-06T07:32:38.783Z,99735.56
2023-03-06T07:34:33.862Z,99741.78
2023-03-06T07:36:29.570Z,99740.13
2023-03-06T07:38:27.086Z,99741.47
2023-03-06T07:40:23.592Z,99741.69
2023-03-06T07:42:18.688Z,99736.59
2023-03-06T07:44:14.092Z,99739.25
2023-03-06T07:46:09.275Z,99744.97
2023-03-06T07:48:05.673Z,99740.59
2023-03-06T07:50:03.167Z,99743.13
2023-03-06T07:51:58.539Z,99742.50
2023-03-06T07:53:56.475Z,99735.44
2023-03-06T07:55:51.782Z,99744.44
2023-03-06T07:57:46.882Z,99742.16
2023-03-06T07:59:42.273Z,99748.06
2023-03-06T08:01:39.383Z,99744.84
2023-03-06T08:03:34.950Z,99737.31
2023-03-06T08:05:30.038Z,99742.50
2023-03-06T08:07:26.264Z,99741.38
2023-03-06T08:09:23.975Z,99744.75
2023-03-06T08:11:21.751Z,99748.44
2023-03-06T08:13:16.738Z,99748.59
2023-03-06T08:15:13.346Z,99739.66
2023-03-06T08:17:08.672Z,99750.69
2023-03-06T08:19:04.018Z,99737.44
2023-03-06T08:21:06.829Z,99749.41
2023-03-06T08:23:02.109Z,99747.84
2023-03-06T08:25:00.320Z,99742.16
2023-03-06T08:26:55.672Z,99744.63
2023-03-06T08:28:51.011Z,99746.91
2023-03-06T08:30:46.333Z,99747.34
2023-03-06T08:32:41.440Z,99746.91
2023-03-06T08:34:39.894Z,99742.03
2023-03-06T08:36:34.990Z,99739.97
2023-03-06T08:38:30.399Z,99742.91
2023-03-06T08:40:30.501Z,99742.81
2023-03-06T08:42:25.869Z,99741.56
2023-03-06T08:44:20.850Z,99738.25
2023-03-06T08:46:16.273Z,99744.88
2023-03-06T08:48:11.676Z,99751.63
2023-03-06T08:50:07.620Z,99755.66
2023-03-06T08:52:02.535Z,99759.91
2023-03-06T08:53:58.678Z,99756.81
2023-03-06T08:55:56.275Z,99754.44
2023-03-06T08:57:51.614Z,99759.50
2023-03-06T08:59:46.652Z,99755.16
2023-03-06T09:01:42.898Z,99756.78
2023-03-06T09:03:37.938Z,99764.00
2023-03-06T09:05:33.317Z,99768.69
2023-03-06T09:07:28.390Z,99767.03
2023-03-06T09:09:23.848Z,99765.81
2023-03-06T09:11:22.366Z,99772.75
2023-03-06T09:13:17.935Z,99778.28
2023-03-06T09:15:14.712Z,99764.38
2023-03-06T09:17:10.123Z,99768.09
2023-03-06T09:19:05.203Z,99770.91
2023-03-06T09:21:00.655Z,99768.72
2023-03-06T09:22:55.675Z,99771.00
2023-03-06T09:24:51.108Z,99765.81
2023-03-06T09:26:50.486Z,99763.00
2023-03-06T09:28:47.287Z,99763.34
2023-03-06T09:30:43.298Z,99766.13
2023-03-06T09:32:38.964Z,99760.53
2023-03-06T09:34:33.974Z,99771.09
2023-03-06T09:36:29.440Z,99771.88
2023-03-06T09:38:28.089Z,99765.09
2023-03-06T09:40:36.330Z,99766.66
2023-03-06T09:42:36.192Z,99769.97
2023-03-06T09:44:52.714Z,99771.22
2023-03-06T09:47:27.367Z,99766.22
2023-03-06T09:49:41.779Z,99770.47
2023-03-06T09:51:51.022Z,99765.47
2023-03-06T09:54:00.686Z,99766.84
2023-03-06T09:56:03.567Z,99768.72
2023-03-06T09:58:07.300Z,99770.72
2023-03-06T10:00:06.682Z,99766.56
2023-03-06T10:02:06.347Z,99765.50
2023-03-06T10:04:11.613Z,99765.50
2023-03-06T10:06:14.466Z,99765.84
2023-03-06T10:08:22.313Z,99760.75
2023-03-06T10:10:25.039Z,99763.75
2023-03-06T10:12:28.745Z,99773.19
2023-03-06T10:14:34.849Z,99768.94
2023-03-06T10:16:33.649Z,99765.41
2023-03-06T10:18:29.231Z,99772.88
2023-03-06T10:20:27.257Z,99763.84
2023-03-06T10:22:30.115Z,99765.06
2023-03-06T10:24:38.391Z,99771.66
2023-03-06T10:26:39.514Z,99765.34
2023-03-06T10:28:42.993Z,99778.13
2023-03-06T10:30:49.014Z,99770.28
2023-03-06T10:32:55.100Z,99777.66
2023-03-06T10:34:51.758Z,99772.88
2023-03-06T10:36:46.762Z,99775.59
2023-03-06T10:38:42.189Z,99778.19
2023-03-06T10:40:46.940Z,99768.47
2023-03-06T10:42:41.860Z,99770.13
2023-03-06T10:44:37.524Z,99774.09
2023-03-06T10:46:37.694Z,99783.06
2023-03-06T10:48:36.093Z,99777.41
2023-03-06T10:50:34.572Z,99771.06
2023-03-06T10:52:33.767Z,99775.22
2023-03-06T10:54:29.577Z,99779.34
2023-03-06T10:56:31.895Z,99773.34
2023-03-06T10:58:29.545Z,99783.06
2023-03-06T11:00:31.913Z,99785.84
2023-03-06T11:02:32.528Z,99776.03
2023-03-06T11:04:31.209Z,99772.59
2023-03-06T11:06:35.702Z,99771.50
2023-03-06T11:08:32.128Z,99769.03
2023-03-06T11:10:27.541Z,99774.00
2023-03-06T11:12:26.591Z,99771.19
2023-03-06T11:14:25.440Z,99765.13
2023-03-06T11:16:27.202Z,99770.53
2023-03-06T11:18:35.410Z,99771.91
2023-03-06T11:20:50.068Z,99768.91
2023-03-06T11:22:49.296Z,99761.97
2023-03-06T11:24:50.414Z,99760.41
2023-03-06T11:26:51.286Z,99755.75
2023-03-06T11:28:51.316Z,99754.81
2023-03-06T11:30:52.470Z,99755.56
2023-03-06T11:32:54.062Z,99761.09
2023-03-06T11:34:56.096Z,99762.03
2023-03-06T11:36:56.112Z,99751.41
2023-03-06T11:38:52.704Z,99762.75
2023-03-06T11:40:54.288Z,99746.88
2023-03-06T11:42:56.117Z,99742.38
2023-03-06T11:45:03.446Z,99748.56
2023-03-06T11:47:07.846Z,99746.34
2023-03-06T11:49:15.572Z,99751.09
2023-03-06T11:51:20.142Z,99746.72
2023-03-06T11:53:18.963Z,99748.06
2023-03-06T11:55:18.051Z,99742.50
2023-03-06T11:57:20.155Z,99740.81
2023-03-06T11:59:43.903Z,99738.88
2023-03-06T12:01:43.957Z,99729.84
2023-03-06T12:03:57.946Z,99732.94
2023-03-06T12:05:58.792Z,99729.41
2023-03-06T12:08:07.201Z,99736.19
2023-03-06T12:10:17.398Z,99732.34
2023-03-06T12:12:24.707Z,99734.59
2023-03-06T12:14:41.371Z,99736.25
2023-03-06T12:16:52.532Z,99735.88
2023-03-06T12:19:00.694Z,99732.97
2023-03-06T12:21:06.227Z,99722.19
2023-03-06T12:23:15.396Z,99724.63
2023-03-06T12:25:28.672Z,99716.91
2023-03-06T12:27:33.149Z,99721.16
2023-03-06T12:29:49.164Z,99722.97
2023-03-06T12:31:53.332Z,99725.56
2023-03-06T12:34:00.405Z,99717.78
2023-03-06T12:36:15.126Z,99723.47
2023-03-06T12:38:29.791Z,99718.03
2023-03-06T12:40:46.022Z,99715.84
2023-03-06T12:43:01.697Z,99713.59
2023-03-06T12:45:17.080Z,99718.66
2023-03-06T12:47:14.382Z,99710.22
2023-03-06T12:49:17.809Z,99710.84
2023-03-06T12:51:23.007Z,99717.94
2023-03-06T12:53:28.701Z,99717.41
2023-03-06T12:55:26.065Z,99713.06
2023-03-06T12:57:21.536Z,99718.16
2023-03-06T12:59:42.793Z,99719.34
2023-03-06T13:01:55.678Z,99714.53
2023-03-06T13:04:05.173Z,99711.31
2023-03-06T13:06:27.724Z,99710.28
2023-03-06T13:08:46.554Z,99718.31
2023-03-06T13:10:47.834Z,99707.44
2023-03-06T13:12:57.582Z,99717.50
2023-03-06T13:14:58.145Z,99716.44
2023-03-06T13:16:53.188Z,99715.03
2023-03-06T13:18:56.963Z,99709.00
2023-03-06T13:20:52.605Z,99700.81
2023-03-06T13:22:50.845Z,99701.03
2023-03-06T13:24:52.583Z,99703.75
2023-03-06T13:27:01.100Z,99701.59
2023-03-06T13:28:58.058Z,99701.34
2023-03-06T13:30:53.554Z,99701.19
2023-03-06T13:32:49.094Z,99703.94
2023-03-06T13:34:50.169Z,99702.28
2023-03-06T13:36:45.239Z,99700.69
2023-03-06T13:38:58.216Z,99692.03
2023-03-06T13:41:30.810Z,99696.94
2023-03-06T13:43:28.795Z,99688.34
2023-03-06T13:45:27.786Z,99696.03
2023-03-06T13:48:01.320Z,99684.59
2023-03-06T13:49:54.578Z,99682.34
2023-03-06T13:52:08.111Z,99686.59
2023-03-06T13:54:36.321Z,99687.72
2023-03-06T13:56:55.073Z,99680.81
2023-03-06T13:59:22.201Z,99686.59
2023-03-06T14:01:30.881Z,99685.47
2023-03-06T14:06:55.568Z,99685.31
2023-03-06T14:08:51.360Z,99683.69
2023-03-06T14:10:49.099Z,99687.81
2023-03-06T14:12:57.411Z,99694.88
2023-03-06T14:14:59.036Z,99679.88
2023-03-06T14:16:54.729Z,99682.28
2023-03-06T14:18:51.318Z,99672.59
2023-03-06T14:20:49.358Z,99664.78
2023-03-06T14:22:44.578Z,99666.09
2023-03-06T14:24:43.775Z,99669.25
2023-03-06T14:26:44.777Z,99667.44
2023-03-06T14:28:40.122Z,99673.50
2023-03-06T14:30:37.788Z,99668.25
2023-03-06T14:32:32.972Z,99675.03
2023-03-06T14:34:30.505Z,99667.59
2023-03-06T14:36:29.346Z,99664.31
2023-03-06T14:38:27.835Z,99670.84
2023-03-06T14:40:28.501Z,99665.88
2023-03-06T14:42:29.440Z,99674.81
2023-03-06T14:44:26.556Z,99668.19
2023-03-06T14:46:25.137Z,99674.84
2023-03-06T14:48:23.243Z,99673.72
2023-03-06T14:50:26.708Z,99672.19
2023-03-06T14:52:24.042Z,99671.66
2023-03-06T14:54:22.843Z,99665.44
2023-03-06T14:56:21.440Z,99667.31
2023-03-06T14:58:22.733Z,99669.03
2023-03-06T15:00:21.924Z,99668.91
2023-03-06T15:02:25.395Z,99661.81
2023-03-06T15:04:28.298Z,99659.59
2023-03-06T15:06:27.109Z,99658.59
2023-03-06T15:08:25.380Z,99660.81
2023-03-06T15:10:26.625Z,99669.34
2023-03-06T15:12:41.511Z,99670.09
2023-03-06T15:14:39.645Z,99671.97
2023-03-06T15:16:34.831Z,99664.63
2023-03-06T15:18:39.166Z,99671.03
2023-03-06T15:20:44.076Z,99666.88
2023-03-06T15:22:40.802Z,99664.75
2023-03-06T15:24:38.444Z,99662.22
2023-03-06T15:26:36.779Z,99665.22
2023-03-06T15:28:37.084Z,99668.28
2023-03-06T15:30:36.657Z,99669.72
2023-03-06T15:32:35.712Z,99663.66
2023-03-06T15:34:33.669Z,99659.13
2023-03-06T15:36:31.318Z,99667.22
2023-03-06T15:38:33.883Z,99664.88
2023-03-06T15:40:31.869Z,99654.72
2023-03-06T15:42:29.951Z,99657.84
2023-03-06T15:44:25.314Z,99662.41
2023-03-06T15:46:20.299Z,99655.66
2023-03-06T15:48:20.209Z,99657.88
2023-03-06T15:50:23.115Z,99660.75
2023-03-06T15:52:18.117Z,99654.28
2023-03-06T15:54:13.530Z,99658.72
2023-03-06T15:56:08.961Z,99664.31
2023-03-06T15:58:06.223Z,99662.28
2023-03-06T16:00:03.723Z,99658.16
2023-03-06T16:01:59.495Z,99662.13
2023-03-06T16:03:57.677Z,99666.09
2023-03-06T16:05:55.663Z,99650.38
2023-03-06T16:07:51.300Z,99656.06
2023-03-06T16:09:47.504Z,99649.34
2023-03-06T16:11:45.395Z,99650.50
2023-03-06T16:13:41.118Z,99648.41
2023-03-06T16:15:41.735Z,99649.47
2023-03-06T16:17:37.103Z,99654.00
2023-03-06T16:19:32.139Z,99652.13
2023-03-06T16:21:30.394Z,99649.41
2023-03-06T16:23:25.372Z,99645.56
2023-03-06T16:25:23.693Z,99653.88
2023-03-06T16:27:23.518Z,99645.84
2023-03-06T16:29:23.921Z,99653.34
2023-03-06T16:31:29.850Z,99649.03
2023-03-06T16:33:25.721Z,99650.31
2023-03-06T16:35:21.349Z,99647.91
2023-03-06T16:37:19.421Z,99654.31
2023-03-06T16:39:17.379Z,99654.03
2023-03-06T16:41:12.689Z,99645.84
2023-03-06T16:43:08.143Z,99655.78
2023-03-06T16:45:03.504Z,99654.91
2023-03-06T16:46:58.701Z,99659.88
2023-03-06T16:48:54.232Z,99653.50
2023-03-06T16:50:51.997Z,99650.84
2023-03-06T16:52:49.958Z,99659.53
2023-03-06T16:54:44.961Z,99654.22
2023-03-06T16:56:41.566Z,99654.03
2023-03-06T16:58:36.682Z,99652.25
2023-03-06T17:00:33.394Z,99658.19
2023-03-06T17:02:28.451Z,99651.88
2023-03-06T17:04:23.823Z,99655.81
2023-03-06T17:06:19.989Z,99663.22
2023-03-06T17:08:18.380Z,99666.81
2023-03-06T17:10:17.282Z,99663.09
2023-03-06T17:12:12.801Z,99669.75
2023-03-06T17:14:08.541Z,99672.78
2023-03-06T17:16:04.165Z,99674.31
2023-03-06T17:17:59.275Z,99676.53
2023-03-06T17:19:55.013Z,99673.00
2023-03-06T17:21:50.005Z,99679.53
2023-03-06T17:23:48.366Z,99668.53
2023-03-06T17:25:43.344Z,99685.16
2023-03-06T17:27:39.623Z,99689.69
2023-03-06T17:29:34.601Z,99687.94
2023-03-06T17:31:30.982Z,99692.56
2023-03-06T17:33:26.358Z,99693.38
2023-03-06T17:35:21.726Z,99698.94
2023-03-06T17:37:16.834Z,99695.25
2023-03-06T17:39:16.316Z,99702.13
2023-03-06T17:41:14.009Z,99700.34
2023-03-06T17:43:09.334Z,99697.75
2023-03-06T17:45:04.403Z,99698.94
2023-03-06T17:47:02.116Z,99699.03
2023-03-06T17:48:58.413Z,99702.69
2023-03-06T17:50:57.455Z,99702.94
2023-03-06T17:52:52.493Z,99705.06
2023-03-06T17:54:50.403Z,99708.38
2023-03-06T17:56:45.797Z,99704.72
2023-03-06T17:58:41.291Z,99708.28
2023-03-06T18:00:36.298Z,99701.91
2023-03-06T18:02:31.620Z,99705.44
2023-03-06T18:04:26.706Z,99695.28
2023-03-06T18:06:22.687Z,99700.94
2023-03-06T18:08:19.358Z,99704.28
2023-03-06T18:10:35.749Z,99698.00
2023-03-06T18:12:31.799Z,99702.13
2023-03-06T18:14:29.805Z,99703.91
2023-03-06T18:16:28.027Z,99700.25
2023-03-06T18:18:24.175Z,99696.94
2023-03-06T18:20:19.929Z,99707.44
2023-03-06T18:22:15.534Z,99702.38
2023-03-06T18:24:12.350Z,99701.19
2023-03-06T18:26:16.057Z,99697.06
2023-03-06T18:28:11.072Z,99699.44
2023-03-06T18:30:08.828Z,99698.22
2023-03-06T18:32:04.313Z,99699.16
2023-03-06T18:34:02.103Z,99702.47
2023-03-06T18:36:06.461Z,99702.72
2023-03-06T18:38:01.889Z,99693.00
2023-03-06T18:39:57.066Z,99700.69
2023-03-06T18:41:56.061Z,99701.41
2023-03-06T18:43:54.147Z,99702.91
2023-03-06T18:45:56.370Z,99704.94
2023-03-06T18:47:51.380Z,99703.84
2023-03-06T18:49:47.720Z,99696.06
2023-03-06T18:51:42.901Z,99699.22
2023-03-06T18:53:40.070Z,99700.31
2023-03-06T18:55:35.201Z,99703.69
2023-03-06T18:57:33.196Z,99696.59
2023-03-06T18:59:28.614Z,99699.75
2023-03-06T19:01:25.517Z,99706.84
2023-03-06T19:03:20.504Z,99701.19
2023-03-06T19:05:15.838Z,99698.75
2023-03-06T19:07:10.863Z,99698.84
2023-03-06T19:09:06.633Z,99694.72
2023-03-06T19:11:04.823Z,99700.72
2023-03-06T19:13:03.168Z,99700.63
2023-03-06T19:14:59.007Z,99704.09
2023-03-06T19:19:16.500Z,99698.34
2023-03-06T19:21:13.525Z,99699.84
2023-03-06T19:23:08.928Z,99699.50
2023-03-06T19:25:04.536Z,99699.94
2023-03-06T19:26:59.876Z,99701.56
2023-03-06T19:28:58.143Z,99703.44
2023-03-06T19:30:53.195Z,99700.00
2023-03-06T19:32:48.952Z,99691.16
2023-03-06T19:34:44.342Z,99698.00
2023-03-06T19:36:40.907Z,99697.28
2023-03-06T19:38:36.782Z,99696.47
2023-03-06T19:40:32.166Z,99690.56
2023-03-06T19:42:27.437Z,99693.28
2023-03-06T19:44:25.513Z,99692.66
2023-03-06T19:46:21.167Z,99692.16
2023-03-06T19:48:17.345Z,99695.69
2023-03-06T19:50:14.025Z,99696.19
2023-03-06T19:52:09.433Z,99690.97
2023-03-06T19:54:04.871Z,99684.22
2023-03-06T19:56:05.862Z,99691.91
2023-03-06T19:58:01.840Z,99692.31
2023-03-06T19:59:59.670Z,99688.06
2023-03-06T20:02:27.619Z,99686.75
2023-03-06T20:04:25.199Z,99691.22
2023-03-06T20:06:23.005Z,99693.09
2023-03-06T20:08:20.178Z,99693.66
2023-03-06T20:10:15.709Z,99690.22
2023-03-06T20:12:11.107Z,99694.59
2023-03-06T20:14:09.251Z,99697.50
2023-03-06T20:16:08.876Z,99689.84
2023-03-06T20:18:06.053Z,99682.47
2023-03-06T20:20:01.427Z,99688.94
2023-03-06T20:21:56.894Z,99684.47
2023-03-06T20:23:52.971Z,99690.91
2023-03-06T20:25:51.285Z,99684.50
2023-03-06T20:27:52.665Z,99685.53
2023-03-06T20:29:48.762Z,99681.06
2023-03-06T20:31:46.487Z,99682.94
2023-03-06T20:33:42.385Z,99680.47
2023-03-06T20:35:37.458Z,99681.28
2023-03-06T20:37:33.182Z,99675.38
2023-03-06T20:39:28.346Z,99680.66
2023-03-06T20:41:25.735Z,99672.16
2023-03-06T20:43:20.837Z,99666.16
2023-03-06T20:45:16.528Z,99673.94
2023-03-06T20:47:14.258Z,99669.78
2023-03-06T20:49:11.249Z,99666.25
2023-03-06T20:51:08.790Z,99657.03
2023-03-06T20:53:04.314Z,99656.22
2023-03-06T20:55:00.104Z,99648.66
2023-03-06T20:56:55.187Z,99650.31
2023-03-06T20:58:50.499Z,99643.56
2023-03-06T21:01:02.251Z,99649.47
2023-03-06T21:03:18.054Z,99648.53
2023-03-06T21:05:15.519Z,99646.97
2023-03-06T21:07:11.049Z,99645.22
2023-03-06T21:09:08.113Z,99648.03
2023-03-06T21:11:03.462Z,99639.63
2023-03-06T21:12:58.473Z,99641.84
2023-03-06T21:14:53.774Z,99645.53
2023-03-06T21:16:48.866Z,99635.59
2023-03-06T21:18:48.036Z,99634.09
2023-03-06T21:20:44.027Z,99633.88
2023-03-06T21:22:40.628Z,99640.59
2023-03-06T21:24:35.903Z,99632.72
2023-03-06T21:26:42.961Z,99633.53
2023-03-06T21:28:49.150Z,99631.78
2023-03-06T21:30:55.477Z,99625.47
2023-03-06T21:32:50.483Z,99628.78
2023-03-06T21:34:48.442Z,99626.31
2023-03-06T21:36:43.600Z,99626.63
2023-03-06T21:38:39.540Z,99623.00
2023-03-06T21:40:34.822Z,99616.34
2023-03-06T21:42:31.814Z,99606.69
2023-03-06T21:44:26.835Z,99613.66
2023-03-06T21:46:22.141Z,99610.22
2023-03-06T21:48:18.019Z,99614.69
2023-03-06T21:50:15.943Z,99614.59
2023-03-06T21:52:11.287Z,99607.84
2023-03-06T21:54:06.485Z,99615.75
2023-03-06T21:56:11.234Z,99608.41
2023-03-06T21:58:06.169Z,99604.34
2023-03-06T22:00:01.517Z,99601.22
2023-03-06T22:01:56.510Z,99603.72
2023-03-06T22:03:52.107Z,99601.03
2023-03-06T22:05:52.805Z,99607.84
2023-03-06T22:07:52.065Z,99602.16
2023-03-06T22:09:47.296Z,99608.06
2023-03-06T22:11:44.208Z,99604.25
2023-03-06T22:13:39.564Z,99601.44
2023-03-06T22:15:34.710Z,99594.69
2023-03-06T22:17:37.279Z,99590.56
2023-03-06T22:19:58.020Z,99587.69
2023-03-06T22:22:21.426Z,99583.44
2023-03-06T22:24:16.381Z,99578.84
2023-03-06T22:26:17.932Z,99575.25
2023-03-06T22:28:19.838Z,99574.53
2023-03-06T22:30:33.902Z,99571.94
2023-03-06T22:32:31.638Z,99573.38
2023-03-06T22:34:28.929Z,99574.19
2023-03-06T22:36:36.116Z,99564.97
2023-03-06T22:38:34.071Z,99567.78
2023-03-06T22:40:29.112Z,99564.47
2023-03-06T22:42:24.553Z,99557.53
2023-03-06T22:44:21.370Z,99561.59
2023-03-06T22:46:19.148Z,99554.13
2023-03-06T22:48:14.200Z,99562.50
2023-03-06T22:50:09.846Z,99554.84
2023-03-06T22:52:05.199Z,99550.59
2023-03-06T22:54:02.853Z,99545.31
2023-03-06T22:56:00.511Z,99547.91
2023-03-06T22:57:55.508Z,99541.38
2023-03-06T22:59:52.893Z,99531.34
2023-03-06T23:01:47.968Z,99534.13
2023-03-06T23:03:46.478Z,99538.38
2023-03-06T23:05:43.851Z,99536.13
2023-03-06T23:07:38.954Z,99525.84
2023-03-06T23:09:36.942Z,99528.53
2023-03-06T23:11:41.316Z,99532.06
2023-03-06T23:13:39.585Z,99524.72
2023-03-06T23:15:38.571Z,99523.97
2023-03-06T23:17:34.104Z,99521.59
2023-03-06T23:19:29.152Z,99525.00
2023-03-06T23:21:24.879Z,99529.47
2023-03-06T23:23:19.909Z,99520.97
2023-03-06T23:25:17.872Z,99524.19
2023-03-06T23:27:12.916Z,99521.28
2023-03-06T23:29:08.230Z,99524.69
2023-03-06T23:31:03.989Z,99516.22